createdAt,value
2017-11-09T00:01:04.466Z,20.02
2017-11-09T00:03:31.934Z,19.27
2017-11-09T00:06:05.082Z,18.02
2017-11-09T00:08:32.575Z,17.40
2017-11-09T00:11:00.134Z,17.30
2017-11-09T00:13:27.600Z,18.15
2017-11-09T00:15:55.052Z,15.85
2017-11-09T00:18:22.521Z,20.33
2017-11-09T00:20:49.963Z,17.85
2017-11-09T00:23:17.512Z,18.98
2017-11-09T00:25:44.975Z,17.70
2017-11-09T00:28:12.424Z,15.43
2017-11-09T00:30:39.907Z,16.58
2017-11-09T00:33:07.354Z,16.92
2017-11-09T00:35:34.823Z,16.77
2017-11-09T00:38:03.043Z,17.05
2017-11-09T00:40:30.507Z,15.32
2017-11-09T00:42:57.966Z,16.37
2017-11-09T00:45:25.427Z,16.65
2017-11-09T00:47:52.886Z,17.48
2017-11-09T00:50:20.345Z,19.08
2017-11-09T00:52:47.798Z,17.25
2017-11-09T00:55:15.267Z,17.33
2017-11-09T00:57:42.719Z,18.33
2017-11-09T01:00:10.186Z,18.95
2017-11-09T01:02:37.654Z,17.42
2017-11-09T01:05:05.111Z,16.15
2017-11-09T01:07:32.560Z,17.55
2017-11-09T01:10:00.026Z,19.87
2017-11-09T01:12:28.043Z,16.30
2017-11-09T01:14:55.502Z,19.37
2017-11-09T01:17:23.003Z,19.58
2017-11-09T01:19:50.476Z,17.33
2017-11-09T01:22:18.700Z,17.73
2017-11-09T01:24:46.146Z,18.10
2017-11-09T01:27:13.611Z,18.77
2017-11-09T01:29:47.862Z,18.80
2017-11-09T01:32:15.317Z,16.60
2017-11-09T01:34:42.775Z,18.98
2017-11-09T01:37:10.247Z,19.73
2017-11-09T01:39:38.471Z,16.83
2017-11-09T01:42:05.926Z,19.48
2017-11-09T01:44:33.387Z,18.55
2017-11-09T01:47:00.896Z,19.50
2017-11-09T01:49:28.323Z,16.80
2017-11-09T01:51:55.795Z,20.83
2017-11-09T01:54:23.259Z,19.05
2017-11-09T01:56:50.716Z,19.30
2017-11-09T01:59:18.174Z,19.17
2017-11-09T02:01:46.405Z,21.25
2017-11-09T02:04:13.854Z,20.27
2017-11-09T02:06:41.344Z,17.55
2017-11-09T02:09:08.805Z,17.20
2017-11-09T02:11:36.259Z,20.35
2017-11-09T02:14:03.733Z,18.42
2017-11-09T02:16:31.191Z,19.40
2017-11-09T02:18:59.414Z,18.60
2017-11-09T02:21:26.866Z,18.58
2017-11-09T02:23:54.349Z,18.65
2017-11-09T02:26:21.809Z,16.95
2017-11-09T02:28:49.271Z,19.77
2017-11-09T02:31:17.270Z,18.75
2017-11-09T02:33:45.487Z,20.85
2017-11-09T02:36:12.943Z,19.83
2017-11-09T02:38:40.399Z,22.70
2017-11-09T02:41:07.851Z,21.20
2017-11-09T02:43:35.314Z,18.42
2017-11-09T02:46:02.775Z,19.73
2017-11-09T02:48:30.242Z,23.60
2017-11-09T02:50:57.694Z,21.55
2017-11-09T02:53:25.157Z,18.62
2017-11-09T02:55:52.601Z,20.20
2017-11-09T02:58:20.190Z,22.80
2017-11-09T03:00:47.646Z,21.50
2017-11-09T03:03:15.093Z,18.40
2017-11-09T03:05:42.546Z,19.30
2017-11-09T03:08:10.106Z,18.70
2017-11-09T03:10:37.558Z,19.90
2017-11-09T03:13:05.014Z,21.17
2017-11-09T03:15:32.479Z,21.45
2017-11-09T03:18:00.394Z,19.77
2017-11-09T03:20:27.859Z,20.52
2017-11-09T03:22:55.357Z,21.87
2017-11-09T03:25:22.822Z,21.20
2017-11-09T03:27:50.282Z,21.85
2017-11-09T03:30:17.744Z,18.08
2017-11-09T03:32:45.194Z,20.95
2017-11-09T03:35:12.659Z,18.83
2017-11-09T03:37:40.195Z,19.67
2017-11-09T03:40:07.662Z,21.42
2017-11-09T03:42:35.114Z,20.50
2017-11-09T03:45:02.580Z,21.00
2017-11-09T03:47:30.034Z,19.85
2017-11-09T03:49:57.502Z,21.30
2017-11-09T03:52:24.953Z,22.40
2017-11-09T03:54:52.499Z,22.33
2017-11-09T03:57:19.957Z,21.12
2017-11-09T03:59:47.426Z,23.15
2017-11-09T04:02:14.884Z,21.90
2017-11-09T04:04:42.346Z,19.58
2017-11-09T04:07:09.800Z,20.30
2017-11-09T04:09:37.259Z,20.12
2017-11-09T04:12:04.708Z,21.42
2017-11-09T04:14:33.071Z,19.62
2017-11-09T04:17:00.522Z,20.33
2017-11-09T04:19:27.998Z,18.92
2017-11-09T04:21:55.450Z,19.48
2017-11-09T04:24:22.902Z,20.55
2017-11-09T04:26:50.358Z,20.20
2017-11-09T04:29:17.822Z,21.42
2017-11-09T04:31:45.277Z,19.33
2017-11-09T04:34:12.731Z,19.62
2017-11-09T04:36:40.198Z,20.95
2017-11-09T04:39:07.751Z,19.15
2017-11-09T04:41:35.224Z,17.80
2017-11-09T04:44:02.675Z,17.92
2017-11-09T04:46:30.139Z,17.70
2017-11-09T04:48:58.401Z,18.73
2017-11-09T04:51:25.951Z,19.27
2017-11-09T04:53:53.402Z,18.23
2017-11-09T04:56:20.966Z,20.65
2017-11-09T04:58:48.432Z,24.10
2017-11-09T05:01:15.978Z,21.92
2017-11-09T05:03:44.154Z,19.65
2017-11-09T05:06:11.649Z,20.88
2017-11-09T05:08:39.871Z,20.37
2017-11-09T05:11:07.334Z,21.00
2017-11-09T05:13:34.797Z,23.77
2017-11-09T05:16:02.256Z,21.48
2017-11-09T05:18:29.725Z,24.50
2017-11-09T05:20:57.178Z,22.60
2017-11-09T05:23:24.644Z,22.08
2017-11-09T05:25:52.094Z,26.48
2017-11-09T05:28:19.558Z,25.70
2017-11-09T05:30:47.007Z,26.77
2017-11-09T05:33:14.467Z,26.02
2017-11-09T05:35:41.921Z,27.05
2017-11-09T05:38:10.891Z,27.50
2017-11-09T05:40:38.354Z,29.77
2017-11-09T05:43:05.806Z,28.67
2017-11-09T05:45:33.254Z,26.52
2017-11-09T05:48:00.736Z,29.52
2017-11-09T05:50:28.195Z,26.85
2017-11-09T05:52:55.657Z,28.10
2017-11-09T05:55:23.198Z,28.15
2017-11-09T05:57:50.654Z,29.67
2017-11-09T06:00:19.038Z,25.35
2017-11-09T06:02:46.491Z,29.37
2017-11-09T06:05:13.946Z,28.45
2017-11-09T06:07:41.409Z,29.50
2017-11-09T06:10:10.399Z,31.30
2017-11-09T06:12:37.850Z,32.47
2017-11-09T06:15:05.313Z,32.72
2017-11-09T06:17:32.758Z,33.83
2017-11-09T06:20:00.227Z,32.22
2017-11-09T06:22:27.675Z,34.15
2017-11-09T06:24:55.139Z,34.53
2017-11-09T06:27:22.587Z,31.58
2017-11-09T06:29:50.046Z,29.75
2017-11-09T06:32:17.504Z,30.65
2017-11-09T06:34:45.071Z,31.35
2017-11-09T06:37:12.523Z,27.58
2017-11-09T06:39:39.979Z,30.50
2017-11-09T06:42:07.432Z,29.75
2017-11-09T06:44:34.893Z,31.50
2017-11-09T06:47:02.347Z,31.10
2017-11-09T06:49:29.813Z,33.33
2017-11-09T06:51:57.257Z,32.22
2017-11-09T06:54:24.720Z,32.33
2017-11-09T06:56:52.278Z,30.27
2017-11-09T06:59:19.739Z,32.90
2017-11-09T07:01:47.198Z,30.27
2017-11-09T07:04:14.660Z,27.77
2017-11-09T07:06:42.114Z,29.12
2017-11-09T07:09:09.574Z,26.85
2017-11-09T07:11:37.027Z,29.45
2017-11-09T07:14:04.490Z,27.10
2017-11-09T07:16:31.938Z,27.17
2017-11-09T07:18:59.406Z,25.62
2017-11-09T07:21:26.847Z,24.17
2017-11-09T07:23:54.305Z,23.73
2017-11-09T07:26:22.539Z,24.75
2017-11-09T07:28:50.038Z,25.05
2017-11-09T07:31:17.499Z,24.98
2017-11-09T07:33:44.959Z,26.75
2017-11-09T07:36:12.422Z,24.42
2017-11-09T07:38:41.317Z,22.95
2017-11-09T07:41:09.552Z,21.45
2017-11-09T07:43:37.015Z,20.60
2017-11-09T07:46:04.480Z,20.92
2017-11-09T07:48:31.934Z,21.27
2017-11-09T07:50:59.404Z,23.83
2017-11-09T07:53:26.867Z,21.27
2017-11-09T07:55:54.343Z,21.55
2017-11-09T07:58:22.572Z,21.25
2017-11-09T08:00:50.043Z,20.30
2017-11-09T08:03:18.111Z,19.00
2017-11-09T08:05:45.595Z,19.80
2017-11-09T08:08:13.046Z,20.55
2017-11-09T08:10:41.302Z,19.87
2017-11-09T08:13:08.770Z,20.25
2017-11-09T08:15:36.228Z,19.60
2017-11-09T08:18:03.675Z,20.30
2017-11-09T08:20:31.179Z,18.25
2017-11-09T08:22:58.627Z,19.20
2017-11-09T08:25:29.265Z,19.02
2017-11-09T08:27:57.935Z,17.40
2017-11-09T08:30:28.679Z,16.85
2017-11-09T08:32:58.414Z,16.65
2017-11-09T08:35:25.902Z,21.70
2017-11-09T08:37:53.359Z,24.95
2017-11-09T08:40:20.826Z,22.77
2017-11-09T08:42:48.283Z,53.00
2017-11-09T08:45:16.503Z,19.50
2017-11-09T08:47:43.964Z,17.92
2017-11-09T08:50:11.415Z,17.20
2017-11-09T08:52:38.926Z,19.12
2017-11-09T08:55:06.390Z,16.02
2017-11-09T08:57:33.854Z,15.55
2017-11-09T09:00:01.306Z,16.20
2017-11-09T09:02:29.546Z,15.85
2017-11-09T09:04:57.013Z,15.88
2017-11-09T09:07:24.582Z,15.82
2017-11-09T09:09:52.039Z,16.12
2017-11-09T09:12:19.501Z,16.10
2017-11-09T09:14:46.966Z,19.08
2017-11-09T09:17:14.421Z,15.15
2017-11-09T09:19:41.882Z,14.90
2017-11-09T09:22:24.229Z,16.73
2017-11-09T09:24:53.568Z,16.12
2017-11-09T09:27:36.567Z,15.32
2017-11-09T09:30:06.614Z,16.73
2017-11-09T09:32:36.308Z,15.30
2017-11-09T09:35:08.390Z,16.02
2017-11-09T09:37:38.919Z,13.62
2017-11-09T09:40:08.717Z,14.75
2017-11-09T09:42:36.389Z,14.98
2017-11-09T09:45:03.847Z,15.32
2017-11-09T09:47:32.838Z,16.02
2017-11-09T09:50:00.300Z,16.23
2017-11-09T09:52:28.532Z,12.95
2017-11-09T09:54:56.226Z,13.13
2017-11-09T09:57:23.679Z,12.43
2017-11-09T09:59:51.348Z,14.20
2017-11-09T10:02:18.795Z,13.20
2017-11-09T10:04:46.319Z,13.88
2017-11-09T10:07:13.771Z,14.05
2017-11-09T10:09:41.236Z,14.70
2017-11-09T10:12:08.687Z,12.80
2017-11-09T10:14:36.185Z,14.02
2017-11-09T10:17:03.637Z,14.50
2017-11-09T10:19:31.110Z,12.57
2017-11-09T10:21:58.565Z,13.27
2017-11-09T10:24:26.027Z,14.35
2017-11-09T10:26:53.481Z,13.80
2017-11-09T10:29:21.714Z,12.60
2017-11-09T10:31:49.167Z,12.65
2017-11-09T10:34:16.625Z,13.40
2017-11-09T10:36:44.087Z,13.60
2017-11-09T10:39:11.570Z,10.75
2017-11-09T10:41:39.023Z,10.68
2017-11-09T10:44:06.588Z,11.20
2017-11-09T10:46:34.035Z,14.35
2017-11-09T10:49:01.486Z,9.73
2017-11-09T10:51:29.060Z,10.20
2017-11-09T10:53:56.510Z,11.65
2017-11-09T10:56:23.975Z,11.70
2017-11-09T10:58:51.432Z,14.02
2017-11-09T11:01:19.663Z,14.02
2017-11-09T11:03:47.126Z,17.85
2017-11-09T11:06:14.618Z,12.20
2017-11-09T11:08:42.834Z,11.65
2017-11-09T11:11:10.303Z,12.88
2017-11-09T11:13:37.761Z,11.80
2017-11-09T11:16:05.241Z,12.63
2017-11-09T11:18:32.692Z,11.05
2017-11-09T11:21:00.162Z,12.65
2017-11-09T11:23:27.618Z,11.20
2017-11-09T11:25:55.091Z,11.02
2017-11-09T11:28:22.657Z,11.45
2017-11-09T11:30:50.135Z,12.95
2017-11-09T11:33:17.590Z,11.15
2017-11-09T11:35:45.050Z,15.52
2017-11-09T11:38:13.275Z,15.55
2017-11-09T11:40:40.751Z,25.52
2017-11-09T11:43:08.208Z,14.43
2017-11-09T11:45:35.669Z,13.27
2017-11-09T11:48:03.138Z,18.70
2017-11-09T11:50:30.690Z,13.35
2017-11-09T11:52:58.169Z,12.35
2017-11-09T11:55:26.410Z,12.18
2017-11-09T11:57:53.870Z,13.18
2017-11-09T12:00:21.327Z,13.00
2017-11-09T12:02:48.808Z,12.60
2017-11-09T12:05:16.251Z,12.55
2017-11-09T12:07:43.722Z,11.05
2017-11-09T12:10:11.933Z,11.85
2017-11-09T12:12:39.406Z,14.10
2017-11-09T12:15:06.855Z,16.15
2017-11-09T12:17:34.347Z,13.55
2017-11-09T12:20:01.803Z,10.82
2017-11-09T12:22:29.270Z,14.70
2017-11-09T12:24:56.724Z,17.12
2017-11-09T12:27:24.191Z,11.60
2017-11-09T12:29:51.650Z,12.52
2017-11-09T12:32:19.124Z,11.70
2017-11-09T12:34:47.334Z,12.68
2017-11-09T12:37:14.796Z,12.10
2017-11-09T12:39:42.278Z,11.73
2017-11-09T12:42:09.747Z,12.43
2017-11-09T12:44:37.207Z,12.10
2017-11-09T12:47:04.663Z,11.77
2017-11-09T12:49:32.130Z,11.23
2017-11-09T12:52:00.348Z,9.30
2017-11-09T12:54:27.807Z,11.88
2017-11-09T12:56:55.267Z,10.88
2017-11-09T12:59:22.732Z,14.30
2017-11-09T13:01:50.191Z,13.65
2017-11-09T13:04:17.653Z,12.15
2017-11-09T13:06:45.107Z,14.75
2017-11-09T13:09:12.594Z,13.55
2017-11-09T13:11:40.042Z,13.50
2017-11-09T13:14:07.511Z,12.75
2017-11-09T13:16:35.731Z,13.55
2017-11-09T13:19:03.198Z,12.93
2017-11-09T13:21:30.658Z,13.55
2017-11-09T13:23:58.145Z,16.50
2017-11-09T13:26:25.610Z,11.63
2017-11-09T13:28:53.067Z,15.30
2017-11-09T13:31:20.523Z,14.38
2017-11-09T13:33:47.981Z,14.38
2017-11-09T13:36:15.443Z,15.38
2017-11-09T13:38:43.663Z,16.15
2017-11-09T13:41:11.123Z,13.75
2017-11-09T13:43:38.579Z,12.85
2017-11-09T13:46:06.062Z,14.45
2017-11-09T13:48:33.516Z,16.80
2017-11-09T13:51:00.983Z,16.95
2017-11-09T13:53:28.443Z,12.70
2017-11-09T13:55:55.899Z,15.23
2017-11-09T13:58:23.354Z,14.43
2017-11-09T14:00:50.810Z,15.52
2017-11-09T14:03:18.358Z,14.07
2017-11-09T14:05:45.814Z,16.90
2017-11-09T14:08:13.378Z,14.30
2017-11-09T14:10:40.838Z,14.93
2017-11-09T14:13:08.387Z,17.20
2017-11-09T14:15:35.856Z,14.80
2017-11-09T14:18:03.407Z,16.25
2017-11-09T14:20:31.085Z,16.95
2017-11-09T14:22:58.528Z,17.60
2017-11-09T14:25:26.010Z,18.67
2017-11-09T14:27:54.231Z,17.23
2017-11-09T14:30:21.703Z,17.50
2017-11-09T14:32:49.167Z,17.40
2017-11-09T14:35:16.619Z,19.37
2017-11-09T14:37:44.083Z,17.15
2017-11-09T14:40:11.647Z,17.12
2017-11-09T14:42:39.113Z,16.33
2017-11-09T14:45:06.566Z,15.10
2017-11-09T14:47:34.038Z,17.12
2017-11-09T14:50:01.571Z,14.20
2017-11-09T14:52:29.034Z,16.00
2017-11-09T14:54:56.491Z,14.73
2017-11-09T14:57:23.955Z,14.40
2017-11-09T14:59:51.411Z,15.70
2017-11-09T15:02:18.874Z,15.18
2017-11-09T15:04:46.326Z,15.88
2017-11-09T15:07:13.784Z,14.82
2017-11-09T15:09:41.239Z,15.63
2017-11-09T15:12:08.695Z,16.90
2017-11-09T15:14:36.150Z,14.90
2017-11-09T15:17:03.634Z,13.45
2017-11-09T15:19:31.859Z,15.90
2017-11-09T15:21:59.314Z,16.62
2017-11-09T15:24:26.799Z,20.25
2017-11-09T15:26:55.030Z,17.95
2017-11-09T15:29:22.491Z,17.90
2017-11-09T15:31:49.948Z,17.55
2017-11-09T15:34:17.417Z,18.95
2017-11-09T15:36:44.889Z,18.35
2017-11-09T15:39:12.460Z,20.12
2017-11-09T15:41:39.921Z,16.40
2017-11-09T15:44:07.385Z,20.48
2017-11-09T15:46:35.610Z,15.93
2017-11-09T15:49:03.083Z,16.87
2017-11-09T15:51:30.530Z,18.87
2017-11-09T15:53:57.998Z,21.95
2017-11-09T15:56:25.462Z,18.12
2017-11-09T15:58:53.022Z,18.08
2017-11-09T16:01:20.482Z,17.90
2017-11-09T16:03:47.959Z,20.00
2017-11-09T16:06:15.406Z,17.55
2017-11-09T16:08:43.642Z,15.35
2017-11-09T16:11:11.211Z,17.52
2017-11-09T16:13:38.673Z,16.67
2017-11-09T16:16:06.131Z,16.60
2017-11-09T16:18:37.283Z,16.23
2017-11-09T16:21:04.870Z,15.63
2017-11-09T16:23:33.134Z,15.30
2017-11-09T16:26:00.586Z,15.50
2017-11-09T16:28:28.089Z,18.48
2017-11-09T16:30:56.294Z,18.37
2017-11-09T16:33:23.796Z,19.23
2017-11-09T16:35:51.250Z,19.52
2017-11-09T16:38:19.475Z,19.87
2017-11-09T16:40:46.960Z,18.15
2017-11-09T16:43:14.414Z,16.70
2017-11-09T16:45:41.872Z,17.77
2017-11-09T16:48:09.335Z,16.15
2017-11-09T16:50:36.800Z,19.95
2017-11-09T16:53:07.215Z,16.40
2017-11-09T16:55:34.673Z,15.77
2017-11-09T16:58:02.135Z,20.48
2017-11-09T17:00:29.602Z,18.17
2017-11-09T17:02:57.151Z,21.83
2017-11-09T17:05:25.526Z,17.58
2017-11-09T17:07:53.754Z,25.30
2017-11-09T17:10:21.350Z,20.45
2017-11-09T17:12:48.816Z,18.30
2017-11-09T17:15:22.882Z,17.10
2017-11-09T17:17:50.326Z,15.38
2017-11-09T17:20:17.791Z,18.80
2017-11-09T17:22:45.257Z,18.08
2017-11-09T17:25:12.719Z,18.40
2017-11-09T17:27:40.201Z,19.73
2017-11-09T17:30:07.646Z,18.85
2017-11-09T17:32:35.103Z,17.27
2017-11-09T17:35:02.585Z,17.77
2017-11-09T17:37:30.022Z,19.27
2017-11-09T17:39:57.490Z,16.17
2017-11-09T17:42:26.768Z,16.15
2017-11-09T17:44:54.233Z,17.80
2017-11-09T17:47:21.698Z,17.20
2017-11-09T17:49:49.186Z,20.45
2017-11-09T17:52:17.429Z,15.27
2017-11-09T17:54:44.992Z,17.12
2017-11-09T17:57:12.457Z,16.08
2017-11-09T17:59:41.825Z,21.95
2017-11-09T18:02:09.323Z,22.00
2017-11-09T18:04:36.775Z,15.88
2017-11-09T18:07:04.322Z,18.98
2017-11-09T18:09:31.782Z,17.37
2017-11-09T18:11:59.248Z,24.50
2017-11-09T18:14:26.702Z,18.90
2017-11-09T18:16:54.157Z,15.20
2017-11-09T18:19:21.618Z,17.48
2017-11-09T18:21:49.093Z,16.10
2017-11-09T18:24:17.314Z,14.50
2017-11-09T18:26:44.779Z,15.57
2017-11-09T18:29:12.238Z,24.10
2017-11-09T18:31:41.621Z,14.55
2017-11-09T18:34:09.116Z,14.05
2017-11-09T18:36:36.577Z,18.42
2017-11-09T18:39:04.031Z,14.50
2017-11-09T18:41:31.505Z,14.60
2017-11-09T18:43:58.957Z,16.02
2017-11-09T18:46:26.424Z,15.82
2017-11-09T18:48:54.654Z,14.87
2017-11-09T18:51:22.127Z,15.88
2017-11-09T18:53:49.578Z,15.60
2017-11-09T18:56:17.038Z,15.82
2017-11-09T18:58:45.414Z,22.30
2017-11-09T19:01:12.875Z,17.00
2017-11-09T19:03:40.342Z,18.40
2017-11-09T19:06:07.794Z,16.05
2017-11-09T19:08:35.261Z,14.50
2017-11-09T19:11:02.714Z,12.27
2017-11-09T19:13:30.261Z,13.15
2017-11-09T19:15:57.727Z,12.32
2017-11-09T19:18:25.195Z,15.90
2017-11-09T19:20:52.738Z,12.70
2017-11-09T19:23:20.295Z,14.95
2017-11-09T19:25:47.759Z,13.52
2017-11-09T19:28:15.313Z,14.07
2017-11-09T19:30:42.775Z,13.05
2017-11-09T19:33:11.018Z,13.18
2017-11-09T19:35:38.470Z,43.42
2017-11-09T19:38:05.983Z,17.90
2017-11-09T19:40:34.208Z,17.30
2017-11-09T19:43:01.661Z,17.50
2017-11-09T19:45:29.122Z,16.45
2017-11-09T19:47:56.588Z,16.15
2017-11-09T19:50:24.121Z,16.50
2017-11-09T19:52:51.566Z,12.40
2017-11-09T19:55:19.036Z,16.48
2017-11-09T19:57:46.539Z,16.42
2017-11-09T20:00:14.091Z,15.27
2017-11-09T20:02:41.549Z,15.48
2017-11-09T20:05:09.019Z,14.00
2017-11-09T20:07:36.465Z,13.13
2017-11-09T20:10:03.932Z,10.13
2017-11-09T20:12:31.478Z,12.40
2017-11-09T20:14:58.939Z,13.02
2017-11-09T20:17:26.402Z,14.65
2017-11-09T20:19:53.889Z,12.82
2017-11-09T20:22:21.342Z,11.93
2017-11-09T20:24:48.801Z,12.45
2017-11-09T20:27:16.258Z,11.40
2017-11-09T20:29:43.711Z,10.77
2017-11-09T20:32:11.948Z,10.30
2017-11-09T20:34:39.403Z,10.63
2017-11-09T20:37:06.868Z,11.40
2017-11-09T20:39:35.346Z,11.60
2017-11-09T20:42:02.823Z,10.80
2017-11-09T20:44:30.279Z,15.13
2017-11-09T20:46:57.818Z,14.70
2017-11-09T20:49:25.285Z,10.68
2017-11-09T20:51:52.746Z,13.75
2017-11-09T20:54:20.206Z,14.35
2017-11-09T20:56:47.749Z,12.35
2017-11-09T20:59:15.207Z,13.13
2017-11-09T21:01:42.676Z,12.98
2017-11-09T21:04:10.126Z,14.38
2017-11-09T21:06:39.114Z,12.77
2017-11-09T21:09:06.658Z,12.30
2017-11-09T21:11:34.118Z,12.77
2017-11-09T21:14:01.646Z,12.27
2017-11-09T21:16:29.114Z,13.05
2017-11-09T21:18:56.576Z,19.83
2017-11-09T21:21:24.039Z,18.12
2017-11-09T21:23:51.603Z,15.05
2017-11-09T21:26:19.062Z,15.65
2017-11-09T21:28:46.522Z,15.05
2017-11-09T21:31:14.244Z,14.87
2017-11-09T21:33:41.711Z,16.45
2017-11-09T21:36:09.166Z,16.20
2017-11-09T21:38:36.651Z,13.27
2017-11-09T21:41:04.093Z,15.32
2017-11-09T21:43:31.545Z,14.82
2017-11-09T21:45:59.019Z,15.75
2017-11-09T21:48:26.473Z,16.95
2017-11-09T21:50:53.935Z,17.27
2017-11-09T21:53:21.394Z,17.25
2017-11-09T21:55:48.845Z,17.20
2017-11-09T21:58:16.329Z,21.00
2017-11-09T22:02:37.015Z,20.02
2017-11-09T22:05:04.603Z,19.25
2017-11-09T22:07:32.032Z,18.77
2017-11-09T22:09:59.494Z,19.58
2017-11-09T22:12:27.048Z,19.48
2017-11-09T22:14:54.505Z,19.40
2017-11-09T22:17:21.960Z,19.30
2017-11-09T22:19:49.517Z,21.65
2017-11-09T22:22:16.966Z,22.70
2017-11-09T22:24:44.539Z,22.60
2017-11-09T22:27:11.995Z,23.95
2017-11-09T22:29:39.458Z,26.45
2017-11-09T22:32:07.018Z,24.77
2017-11-09T22:34:34.463Z,23.40
2017-11-09T22:37:01.922Z,28.15
2017-11-09T22:39:29.387Z,27.90
2017-11-09T22:41:56.829Z,26.40
2017-11-09T22:44:24.289Z,27.58
2017-11-09T22:46:51.747Z,24.83
2017-11-09T22:49:19.203Z,29.00
2017-11-09T22:51:46.662Z,23.42
2017-11-09T22:54:14.113Z,27.42
2017-11-09T22:56:41.578Z,30.55
2017-11-09T22:59:09.058Z,26.37
2017-11-09T23:01:36.592Z,26.55
2017-11-09T23:04:04.049Z,26.50
2017-11-09T23:06:31.531Z,25.45
2017-11-09T23:08:59.758Z,27.08
2017-11-09T23:11:27.235Z,26.40
2017-11-09T23:13:54.695Z,28.98
2017-11-09T23:16:22.154Z,29.00
2017-11-09T23:18:49.714Z,30.20
2017-11-09T23:21:17.171Z,27.62
2017-11-09T23:23:44.623Z,30.40
2017-11-09T23:26:12.084Z,29.95
2017-11-09T23:28:39.539Z,32.42
2017-11-09T23:31:07.003Z,27.75
2017-11-09T23:33:34.449Z,27.75
2017-11-09T23:36:01.920Z,28.92
2017-11-09T23:38:29.378Z,28.27
2017-11-09T23:40:56.834Z,30.35
2017-11-09T23:43:24.287Z,27.65
2017-11-09T23:45:51.743Z,31.77
2017-11-09T23:48:19.294Z,30.55
2017-11-09T23:50:46.758Z,29.75
2017-11-09T23:53:14.209Z,28.20
2017-11-09T23:55:41.676Z,29.75
2017-11-09T23:58:10.644Z,30.95
